Time;durP1;ratioP1;P1;durP2;ratioP2;P2;SDS_P1;SDS_P2;PMS_P1;PMS_P2;Temp;Humidity;BMP_temperature;BMP_pressure;BME280_temperature;BME280_humidity;BME280_pressure;Samples;Min_cycle;Max_cycle;Signal;HPM_P1;HPM_P2
2022/02/28 06:44:41;;;;;;;19.67;13.23;;;0.10;99.10;;;;;;4942236;29;20705;-89
2022/02/28 06:47:08;;;;;;;14.73;11.32;;;0.20;98.80;;;;;;4936682;29;20198;-88
2022/02/28 06:49:35;;;;;;;15.52;12.50;;;0.20;98.40;;;;;;4951924;28;20205;-86
2022/02/28 06:52:02;;;;;;;15.90;11.85;;;0.30;98.20;;;;;;4954882;29;20181;-86
2022/02/28 06:54:28;;;;;;;15.82;12.05;;;0.30;98.10;;;;;;4946386;29;20648;-87
2022/02/28 06:56:55;;;;;;;19.52;14.00;;;0.30;98.00;;;;;;4935626;29;20240;-87
2022/02/28 06:59:22;;;;;;;19.73;13.35;;;0.30;98.00;;;;;;4946337;29;20234;-88
2022/02/28 07:01:50;;;;;;;24.95;13.95;;;0.40;98.00;;;;;;4939287;29;20588;-89
2022/02/28 07:04:17;;;;;;;19.63;13.25;;;0.60;97.80;;;;;;4934548;29;20222;-88
2022/02/28 07:06:44;;;;;;;19.13;12.95;;;0.60;97.40;;;;;;4935724;29;20231;-89
2022/02/28 07:09:10;;;;;;;24.08;14.75;;;0.60;97.40;;;;;;4939162;29;20697;-89
2022/02/28 07:11:37;;;;;;;19.35;15.25;;;0.60;97.50;;;;;;4931286;29;20204;-89
2022/02/28 07:14:05;;;;;;;18.58;13.82;;;0.60;97.50;;;;;;4959193;29;20649;-87
2022/02/28 07:16:32;;;;;;;23.50;14.63;;;0.70;97.60;;;;;;4945705;29;20195;-88
2022/02/28 07:19:00;;;;;;;20.05;14.35;;;0.70;97.60;;;;;;4927342;29;20202;-89
2022/02/28 07:21:27;;;;;;;19.25;14.13;;;0.70;97.60;;;;;;4945724;29;20199;-89
2022/02/28 07:23:57;;;;;;;21.33;13.15;;;0.90;97.60;;;;;;4949265;29;20398;-89
2022/02/28 07:26:29;;;;;;;27.25;14.60;;;1.00;97.50;;;;;;4946845;29;20241;-88
2022/02/28 07:28:56;;;;;;;24.00;14.90;;;1.10;97.40;;;;;;4942423;29;20198;-89
2022/02/28 07:31:23;;;;;;;22.33;14.40;;;1.20;97.00;;;;;;4944285;29;20254;-90
2022/02/28 07:33:50;;;;;;;18.60;13.40;;;1.30;96.70;;;;;;4927286;29;20230;-89
2022/02/28 07:36:18;;;;;;;21.27;14.43;;;1.30;96.80;;;;;;4921954;29;20254;-88
2022/02/28 07:38:45;;;;;;;19.23;13.30;;;1.40;96.20;;;;;;4930974;29;20230;-89
2022/02/28 07:41:12;;;;;;;24.00;14.75;;;1.50;96.10;;;;;;4938463;29;20206;-89
2022/02/28 07:43:38;;;;;;;16.13;13.00;;;1.60;95.80;;;;;;4937030;29;20604;-90
2022/02/28 07:46:05;;;;;;;14.95;12.55;;;1.60;95.40;;;;;;4933354;29;20222;-89
2022/02/28 07:48:32;;;;;;;24.95;16.25;;;1.70;95.20;;;;;;4929372;29;20214;-90
2022/02/28 07:50:58;;;;;;;19.30;13.93;;;1.80;95.10;;;;;;4923848;29;20206;-89
2022/02/28 07:53:27;;;;;;;19.55;15.48;;;1.90;94.90;;;;;;4932316;29;20733;-89
2022/02/28 07:55:54;;;;;;;19.20;13.30;;;1.90;94.60;;;;;;4936423;29;20665;-88
2022/02/28 07:58:21;;;;;;;18.13;12.75;;;2.00;94.40;;;;;;4928604;29;20214;-89
2022/02/28 08:00:48;;;;;;;16.83;12.93;;;2.10;94.30;;;;;;4938993;29;20712;-89
2022/02/28 08:03:15;;;;;;;18.63;14.43;;;2.10;93.90;;;;;;4939371;29;20226;-89
2022/02/28 08:05:42;;;;;;;26.13;14.75;;;2.20;93.80;;;;;;4937111;29;20222;-89
2022/02/28 08:08:08;;;;;;;23.23;14.82;;;2.30;93.60;;;;;;4937935;29;20210;-88
2022/02/28 08:10:37;;;;;;;17.58;12.43;;;2.40;93.50;;;;;;4937550;29;20259;-90
2022/02/28 08:13:03;;;;;;;16.38;14.30;;;2.50;93.30;;;;;;4956686;28;20199;-88
2022/02/28 08:15:30;;;;;;;18.33;13.40;;;2.50;93.10;;;;;;4948364;29;20274;-89
2022/02/28 08:17:57;;;;;;;18.65;13.75;;;2.70;93.00;;;;;;4940371;29;20202;-89
2022/02/28 08:20:24;;;;;;;21.48;15.55;;;2.90;92.60;;;;;;4926570;29;20199;-89
2022/02/28 08:22:51;;;;;;;22.63;16.42;;;3.30;92.50;;;;;;4933222;29;20207;-89
2022/02/28 08:25:17;;;;;;;19.23;16.03;;;4.70;92.20;;;;;;4928435;29;20208;-88
2022/02/28 08:27:45;;;;;;;18.57;15.20;;;6.40;88.00;;;;;;4920990;29;20483;-90
2022/02/28 08:30:13;;;;;;;18.77;15.30;;;8.10;81.10;;;;;;4918836;29;20461;-89
2022/02/28 08:32:39;;;;;;;24.47;16.60;;;9.70;70.80;;;;;;4938976;29;20464;-90
2022/02/28 08:35:07;;;;;;;20.80;16.80;;;10.50;63.70;;;;;;4934612;29;20868;-90
2022/02/28 08:37:34;;;;;;;21.93;16.40;;;12.20;60.70;;;;;;4936600;29;20457;-90
2022/02/28 08:40:01;;;;;;;16.17;14.57;;;12.90;56.40;;;;;;4923699;29;20460;-89
2022/02/28 08:42:27;;;;;;;16.53;14.83;;;12.70;55.30;;;;;;4931689;29;21013;-89
2022/02/28 08:44:56;;;;;;;18.70;15.93;;;13.60;54.70;;;;;;4924266;29;20474;-90
2022/02/28 08:47:22;;;;;;;17.60;15.80;;;14.90;52.70;;;;;;4923305;29;20496;-90
2022/02/28 08:49:49;;;;;;;16.67;14.97;;;15.30;49.20;;;;;;4931862;29;20802;-90
2022/02/28 08:52:16;;;;;;;16.63;15.03;;;15.80;48.50;;;;;;4926001;29;20992;-92
2022/02/28 08:54:43;;;;;;;19.07;17.17;;;15.60;47.80;;;;;;4932390;29;20469;-90
2022/02/28 08:57:10;;;;;;;18.23;16.30;;;14.70;47.60;;;;;;4939358;29;20460;-90
2022/02/28 08:59:36;;;;;;;15.97;14.33;;;13.80;48.50;;;;;;4941892;29;20464;-91
2022/02/28 09:02:05;;;;;;;17.37;15.57;;;13.40;49.70;;;;;;4940904;29;20445;-90
2022/02/28 09:04:32;;;;;;;16.90;15.10;;;13.90;49.50;;;;;;4924946;29;20463;-90
2022/02/28 09:06:59;;;;;;;20.43;16.43;;;13.90;49.20;;;;;;4931189;29;20489;-89
2022/02/28 09:09:26;;;;;;;16.30;14.80;;;14.70;49.30;;;;;;4941081;29;20457;-89
2022/02/28 09:11:53;;;;;;;16.10;14.20;;;14.60;47.80;;;;;;4942557;29;20948;-89
2022/02/28 09:14:20;;;;;;;16.13;14.43;;;14.60;48.00;;;;;;4952720;29;20561;-89
2022/02/28 09:16:51;;;;;;;16.17;14.53;;;15.10;47.90;;;;;;4943638;28;20457;-89
2022/02/28 09:19:20;;;;;;;17.27;15.43;;;15.50;46.60;;;;;;4928099;29;20569;-90
2022/02/28 09:21:46;;;;;;;13.90;12.60;;;15.40;45.70;;;;;;4931773;29;20488;-89
2022/02/28 09:24:15;;;;;;;19.93;15.37;;;15.50;45.90;;;;;;4944523;29;20480;-90
2022/02/28 09:26:42;;;;;;;15.80;14.10;;;15.90;45.60;;;;;;4942929;29;20485;-89
2022/02/28 09:29:09;;;;;;;14.83;13.27;;;15.80;45.10;;;;;;4948830;29;20466;-91
2022/02/28 09:31:36;;;;;;;16.10;14.50;;;16.10;44.60;;;;;;4960352;29;20501;-89
2022/02/28 09:34:03;;;;;;;15.33;13.60;;;16.10;44.20;;;;;;4942610;29;20475;-90
2022/02/28 09:36:31;;;;;;;15.90;14.20;;;15.80;44.20;;;;;;4940321;29;20456;-90
2022/02/28 09:38:58;;;;;;;13.97;12.67;;;15.00;44.40;;;;;;4941503;29;20466;-90
2022/02/28 09:41:26;;;;;;;17.07;13.47;;;15.10;45.40;;;;;;4941146;29;20450;-90
2022/02/28 09:43:54;;;;;;;16.97;15.17;;;14.90;44.50;;;;;;4934976;29;20501;-90
2022/02/28 09:46:21;;;;;;;14.77;13.33;;;14.00;46.00;;;;;;4933660;29;20487;-90
2022/02/28 09:48:48;;;;;;;15.90;14.37;;;14.40;46.40;;;;;;4948478;29;20451;-89
2022/02/28 09:51:17;;;;;;;16.53;15.00;;;14.90;45.70;;;;;;4934185;29;20461;-87
2022/02/28 09:53:45;;;;;;;16.00;14.40;;;15.30;46.20;;;;;;4933370;29;20565;-88
2022/02/28 09:56:14;;;;;;;15.90;14.20;;;14.70;45.40;;;;;;4925474;29;20456;-88
2022/02/28 09:58:40;;;;;;;15.17;13.70;;;15.10;45.80;;;;;;4924415;29;20485;-89
2022/02/28 10:01:07;;;;;;;14.07;12.67;;;16.00;45.10;;;;;;4943665;29;20518;-89
2022/02/28 10:03:36;;;;;;;15.57;14.07;;;17.40;44.40;;;;;;4929465;29;20474;-89
2022/02/28 10:06:02;;;;;;;15.83;14.23;;;17.50;42.10;;;;;;4949172;29;20489;-90
2022/02/28 10:08:40;;;;;;;15.17;13.60;;;17.20;42.00;;;;;;4937046;29;20815;-90
2022/02/28 10:11:23;;;;;;;15.43;13.83;;;16.20;43.50;;;;;;4940888;29;20450;-90
2022/02/28 10:13:51;;;;;;;13.67;12.40;;;16.40;43.00;;;;;;4921340;29;21001;-89
2022/02/28 10:16:29;;;;;;;15.70;14.17;;;16.50;42.90;;;;;;4922745;29;20537;-89
2022/02/28 10:18:56;;;;;;;16.03;14.43;;;17.10;43.40;;;;;;4922027;29;20460;-89
2022/02/28 10:21:35;;;;;;;14.40;12.90;;;18.00;42.30;;;;;;4922170;29;20454;-88
2022/02/28 10:24:02;;;;;;;14.70;13.37;;;18.90;40.60;;;;;;4922626;29;20462;-89
2022/02/28 10:26:38;;;;;;;14.37;13.07;;;20.00;40.10;;;;;;4930677;29;20470;-89
2022/02/28 10:29:06;;;;;;;15.10;13.63;;;22.00;37.90;;;;;;4941060;29;20415;-90
2022/02/28 10:31:35;;;;;;;15.03;13.63;;;21.40;37.40;;;;;;4945607;29;20485;-90
2022/02/28 10:34:16;;;;;;;15.63;14.23;;;21.20;36.20;;;;;;4942435;29;20475;-91
2022/02/28 10:36:46;;;;;;;16.00;14.40;;;22.20;35.90;;;;;;4941397;29;20457;-87
2022/02/28 10:39:13;;;;;;;15.50;14.17;;;22.10;35.00;;;;;;4927874;29;20515;-90
2022/02/28 10:41:43;;;;;;;16.00;14.50;;;20.30;36.10;;;;;;4955625;28;21284;-90
2022/02/28 10:44:13;;;;;;;15.07;13.67;;;19.70;37.10;;;;;;4960264;29;20468;-91
2022/02/28 10:46:43;;;;;;;14.37;13.17;;;19.60;36.00;;;;;;4954199;28;20470;-88
2022/02/28 10:49:15;;;;;;;14.67;13.27;;;20.30;36.40;;;;;;4940828;29;20962;-90
2022/02/28 10:51:51;;;;;;;15.17;13.60;;;21.50;34.50;;;;;;4924906;29;20460;-92
2022/02/28 10:54:22;;;;;;;15.87;14.33;;;24.00;33.90;;;;;;4935777;29;20470;-90
2022/02/28 10:56:57;;;;;;;16.37;14.77;;;25.20;32.00;;;;;;4938781;29;20463;-89
2022/02/28 10:59:26;;;;;;;15.33;14.03;;;25.70;30.10;;;;;;4939830;29;20449;-90
2022/02/28 11:01:54;;;;;;;15.70;14.10;;;25.50;30.00;;;;;;4940177;29;20469;-90
2022/02/28 11:04:35;;;;;;;15.23;13.83;;;24.70;29.80;;;;;;4940555;29;20448;-89
2022/02/28 11:07:03;;;;;;;15.87;14.57;;;24.50;30.40;;;;;;4920971;29;20483;-89
2022/02/28 11:09:31;;;;;;;16.73;15.17;;;24.00;29.20;;;;;;4931569;29;20464;-89
2022/02/28 11:12:21;;;;;;;15.30;13.90;;;22.30;31.10;;;;;;4940036;29;20520;-88
2022/02/28 11:14:48;;;;;;;13.77;12.43;;;22.70;31.10;;;;;;4939580;29;20473;-89
2022/02/28 11:17:17;;;;;;;13.50;12.10;;;22.50;29.90;;;;;;4947423;29;20529;-89
2022/02/28 11:19:44;;;;;;;13.07;11.87;;;20.10;31.30;;;;;;4946091;29;20546;-89
2022/02/28 11:22:11;;;;;;;15.20;13.40;;;20.60;32.10;;;;;;4933923;29;20969;-88
2022/02/28 11:24:39;;;;;;;14.67;12.07;;;21.60;31.00;;;;;;4934701;29;20450;-90
2022/02/28 11:27:07;;;;;;;12.53;11.23;;;22.40;30.30;;;;;;4953986;29;20480;-89
2022/02/28 11:29:34;;;;;;;14.17;12.77;;;20.80;31.10;;;;;;4946931;29;20472;-88
2022/02/28 11:32:01;;;;;;;13.03;11.63;;;20.30;31.60;;;;;;4934873;29;20461;-89
2022/02/28 11:34:28;;;;;;;13.47;12.17;;;20.70;32.10;;;;;;4933466;29;20481;-89
2022/02/28 11:36:58;;;;;;;13.30;12.00;;;21.10;31.90;;;;;;4939377;29;20449;-87
2022/02/28 11:39:29;;;;;;;11.10;10.10;;;22.00;30.40;;;;;;4938160;29;20512;-88
2022/02/28 11:41:56;;;;;;;12.27;11.07;;;22.00;29.40;;;;;;4937303;29;20456;-89
2022/02/28 11:44:24;;;;;;;13.17;11.97;;;21.10;29.80;;;;;;4972763;23;20499;-88
2022/02/28 11:47:00;;;;;;;12.93;11.63;;;20.70;30.10;;;;;;4918838;29;20492;-87
2022/02/28 11:49:27;;;;;;;14.23;12.87;;;20.90;31.10;;;;;;4918071;29;20881;-88
2022/02/28 11:51:55;;;;;;;12.50;11.20;;;21.40;30.60;;;;;;4917588;29;20464;-88
2022/02/28 11:54:28;;;;;;;12.53;11.33;;;20.10;30.90;;;;;;4909559;29;20610;-88
2022/02/28 11:56:58;;;;;;;13.10;11.87;;;19.10;31.70;;;;;;4899480;29;20522;-88
2022/02/28 11:59:29;;;;;;;31.87;12.53;;;19.60;32.50;;;;;;4900090;29;20460;-88
2022/02/28 12:01:58;;;;;;;12.43;11.10;;;20.60;31.10;;;;;;4900087;29;20456;-88
2022/02/28 12:04:36;;;;;;;11.03;10.03;;;20.40;31.00;;;;;;4900448;29;20475;-89
2022/02/28 12:07:05;;;;;;;11.83;10.73;;;20.80;30.80;;;;;;4900615;29;20484;-88
2022/02/28 12:09:43;;;;;;;12.70;11.50;;;20.90;30.90;;;;;;4906108;29;20521;-89
2022/02/28 12:12:15;;;;;;;12.00;10.90;;;22.40;29.90;;;;;;4907769;29;20456;-89
2022/02/28 12:15:14;;;;;;;11.37;10.27;;;23.40;29.30;;;;;;4906249;29;20481;-87
2022/02/28 12:17:56;;;;;;;12.00;10.90;;;20.50;29.70;;;;;;4905284;29;20475;-86
2022/02/28 12:20:26;;;;;;;14.30;10.30;;;19.60;31.30;;;;;;4904447;29;20452;-86
2022/02/28 12:23:22;;;;;;;12.07;10.90;;;19.80;30.60;;;;;;4905692;29;20450;-87
2022/02/28 12:26:00;;;;;;;11.60;10.50;;;20.00;30.80;;;;;;4888587;29;20467;-87
2022/02/28 12:28:28;;;;;;;11.67;10.47;;;20.70;30.80;;;;;;4904944;29;20524;-88
2022/02/28 12:31:02;;;;;;;11.20;10.10;;;22.00;29.50;;;;;;4904038;29;20452;-88
2022/02/28 12:33:57;;;;;;;12.73;11.40;;;22.10;29.40;;;;;;4909399;29;20471;-87
2022/02/28 12:36:29;;;;;;;13.33;12.03;;;22.30;29.20;;;;;;4906117;29;20512;-87
2022/02/28 12:38:58;;;;;;;13.63;12.33;;;23.00;28.90;;;;;;4907501;29;20506;-87
2022/02/28 12:41:26;;;;;;;13.13;11.93;;;23.20;28.20;;;;;;4897349;29;20461;-87
2022/02/28 12:43:54;;;;;;;12.33;11.17;;;21.70;28.70;;;;;;4900107;29;20508;-87
2022/02/28 12:46:24;;;;;;;11.70;10.60;;;20.10;29.20;;;;;;4916485;29;20443;-85
2022/02/28 12:48:52;;;;;;;12.73;11.50;;;19.30;29.80;;;;;;4890839;29;21027;-86
2022/02/28 12:51:21;;;;;;;12.17;10.90;;;19.60;30.00;;;;;;4900850;29;20771;-86
2022/02/28 12:53:49;;;;;;;12.17;10.97;;;19.50;30.20;;;;;;4898001;29;20509;-86
2022/02/28 12:56:18;;;;;;;11.13;10.10;;;18.80;30.90;;;;;;4901029;29;20872;-85
2022/02/28 12:58:46;;;;;;;11.47;10.27;;;18.70;31.90;;;;;;4907716;29;20448;-86
2022/02/28 13:01:14;;;;;;;13.20;11.27;;;19.60;32.00;;;;;;4911189;29;20476;-85
2022/02/28 13:03:44;;;;;;;12.37;11.17;;;19.90;31.30;;;;;;4903840;29;20487;-87
2022/02/28 13:06:12;;;;;;;14.30;11.60;;;19.40;31.00;;;;;;4906993;29;20472;-86
2022/02/28 13:08:41;;;;;;;13.43;12.10;;;18.30;31.90;;;;;;4907421;29;20544;-86
2022/02/28 13:11:09;;;;;;;14.77;11.90;;;17.70;32.70;;;;;;4904488;29;20448;-85
2022/02/28 13:13:36;;;;;;;11.00;10.00;;;17.30;32.80;;;;;;4918654;29;20471;-84
2022/02/28 13:16:04;;;;;;;13.30;11.93;;;17.50;33.00;;;;;;4906703;29;20466;-87
2022/02/28 13:18:32;;;;;;;11.73;10.63;;;18.00;32.70;;;;;;4900865;29;20454;-86
2022/02/28 13:21:01;;;;;;;12.07;10.80;;;18.40;32.00;;;;;;4899807;29;20523;-86
2022/02/28 13:23:28;;;;;;;12.53;11.23;;;18.70;32.50;;;;;;4899625;29;20467;-86
2022/02/28 13:25:56;;;;;;;13.57;12.00;;;19.30;31.90;;;;;;4903748;29;20455;-86
2022/02/28 13:28:35;;;;;;;11.77;10.60;;;20.10;31.10;;;;;;4904299;29;20515;-86
2022/02/28 13:31:02;;;;;;;11.80;10.70;;;19.80;30.70;;;;;;4907366;29;20949;-86
2022/02/28 13:33:30;;;;;;;11.70;10.43;;;19.40;30.90;;;;;;4903332;29;20471;-86
2022/02/28 13:35:57;;;;;;;11.20;10.10;;;19.00;30.70;;;;;;4902688;29;20466;-84
2022/02/28 13:38:26;;;;;;;12.20;10.77;;;18.80;31.00;;;;;;4901828;29;20455;-87
2022/02/28 13:40:53;;;;;;;12.33;10.13;;;20.30;30.70;;;;;;4905573;29;20455;-86
2022/02/28 13:43:20;;;;;;;11.83;10.73;;;21.70;29.40;;;;;;4901775;29;21085;-86
2022/02/28 13:45:50;;;;;;;11.60;10.40;;;22.20;28.60;;;;;;4905706;29;20538;-86
2022/02/28 13:48:19;;;;;;;11.90;10.80;;;21.90;28.40;;;;;;4914018;29;20497;-86
2022/02/28 13:50:46;;;;;;;11.63;10.43;;;21.70;28.60;;;;;;4918135;29;20449;-85
2022/02/28 13:53:13;;;;;;;10.93;9.90;;;21.00;28.60;;;;;;4905370;29;20967;-86
2022/02/28 13:55:43;;;;;;;12.33;10.83;;;20.50;28.60;;;;;;4906260;29;20459;-86
2022/02/28 13:58:12;;;;;;;13.70;10.77;;;20.30;28.60;;;;;;4905326;29;20453;-86
2022/02/28 14:00:49;;;;;;;10.03;9.03;;;19.50;29.00;;;;;;4904624;29;20456;-86
2022/02/28 14:03:17;;;;;;;10.90;9.70;;;18.90;29.50;;;;;;4909457;29;20439;-84
2022/02/28 14:05:47;;;;;;;12.70;10.33;;;18.80;29.70;;;;;;4917914;29;20456;-86
2022/02/28 14:08:15;;;;;;;10.97;9.97;;;18.20;30.40;;;;;;4910143;29;20483;-86
2022/02/28 14:10:45;;;;;;;12.47;9.93;;;17.10;30.40;;;;;;4904559;29;20927;-86
2022/02/28 14:13:17;;;;;;;10.00;9.03;;;16.30;31.20;;;;;;4919704;29;20449;-85
2022/02/28 14:15:46;;;;;;;9.90;8.83;;;16.30;31.60;;;;;;4909538;29;20533;-85
2022/02/28 14:18:12;;;;;;;11.90;10.20;;;16.00;31.10;;;;;;4922953;29;20436;-84
2022/02/28 14:20:40;;;;;;;10.33;9.33;;;15.80;32.00;;;;;;4897901;29;20450;-85
2022/02/28 14:23:08;;;;;;;11.70;8.17;;;15.30;31.60;;;;;;4910402;29;20957;-86
2022/02/28 14:25:37;;;;;;;9.70;8.80;;;14.80;32.80;;;;;;4905539;29;20555;-86
2022/02/28 14:28:16;;;;;;;8.93;7.83;;;15.20;32.90;;;;;;4913012;29;20502;-85
2022/02/28 14:30:49;;;;;;;10.37;9.03;;;16.10;32.00;;;;;;4921961;29;20432;-84
2022/02/28 14:33:16;;;;;;;10.20;9.20;;;16.60;31.40;;;;;;4911412;29;20463;-86
2022/02/28 14:35:43;;;;;;;11.10;10.00;;;17.10;30.20;;;;;;4905438;29;20460;-86
2022/02/28 14:38:10;;;;;;;10.57;9.47;;;17.20;30.20;;;;;;4903674;29;20963;-85
2022/02/28 14:40:36;;;;;;;9.80;8.80;;;17.50;29.80;;;;;;4905316;29;20475;-86
2022/02/28 14:43:03;;;;;;;9.90;8.87;;;17.60;29.90;;;;;;4905083;29;20455;-87
2022/02/28 14:45:33;;;;;;;10.50;9.50;;;17.30;29.70;;;;;;4917152;29;20542;-86
2022/02/28 14:48:04;;;;;;;9.63;8.67;;;16.60;29.40;;;;;;4896591;29;20478;-87
2022/02/28 14:50:32;;;;;;;12.50;8.63;;;16.20;30.10;;;;;;4928113;28;20445;-85
2022/02/28 14:52:58;;;;;;;9.37;8.40;;;15.30;30.00;;;;;;4910380;29;20454;-86
2022/02/28 14:55:26;;;;;;;9.00;7.80;;;14.60;29.80;;;;;;4904146;29;20475;-86
2022/02/28 14:57:52;;;;;;;9.33;8.00;;;14.90;30.40;;;;;;4904978;29;20468;-86
2022/02/28 15:00:21;;;;;;;9.77;8.20;;;15.30;30.90;;;;;;4901213;29;20475;-86
2022/02/28 15:02:49;;;;;;;9.20;8.20;;;15.80;30.60;;;;;;4902649;29;20819;-87
2022/02/28 15:05:16;;;;;;;12.83;9.43;;;16.10;30.40;;;;;;4900036;29;21029;-86
2022/02/28 15:07:42;;;;;;;10.13;8.57;;;15.30;30.80;;;;;;4898567;29;20502;-86
2022/02/28 15:10:10;;;;;;;13.90;9.00;;;14.90;31.50;;;;;;4901838;29;20466;-87
2022/02/28 15:12:37;;;;;;;8.87;8.00;;;14.60;32.20;;;;;;4901657;29;20469;-85
2022/02/28 15:15:04;;;;;;;11.77;9.67;;;14.70;32.20;;;;;;4902448;29;20480;-87
2022/02/28 15:17:31;;;;;;;10.37;8.73;;;14.50;32.30;;;;;;4903668;29;20456;-86
2022/02/28 15:19:59;;;;;;;11.07;9.87;;;14.40;33.20;;;;;;4911730;29;20461;-85
2022/02/28 15:22:26;;;;;;;13.80;10.53;;;14.30;33.40;;;;;;4900500;29;20463;-86
2022/02/28 15:24:52;;;;;;;10.33;9.30;;;14.60;33.00;;;;;;4897423;29;20496;-85
2022/02/28 15:27:19;;;;;;;10.70;9.60;;;14.70;32.90;;;;;;4895018;29;20449;-85
2022/02/28 15:29:46;;;;;;;9.93;8.93;;;14.60;33.00;;;;;;4896547;29;20445;-85
2022/02/28 15:32:13;;;;;;;10.20;8.80;;;15.00;33.10;;;;;;4897575;29;20453;-85
2022/02/28 15:34:39;;;;;;;9.60;8.70;;;15.20;32.80;;;;;;4901634;29;20474;-85
2022/02/28 15:37:08;;;;;;;10.10;9.10;;;15.20;32.70;;;;;;4901016;29;20526;-85
2022/02/28 15:39:34;;;;;;;10.67;9.67;;;15.00;32.60;;;;;;4899402;29;20453;-85
2022/02/28 15:42:01;;;;;;;10.77;8.17;;;15.10;32.80;;;;;;4899267;29;20461;-85
2022/02/28 15:44:28;;;;;;;10.60;9.50;;;15.60;32.70;;;;;;4900078;29;20486;-87
2022/02/28 15:46:54;;;;;;;10.40;9.40;;;15.90;32.30;;;;;;4899341;29;20474;-86
2022/02/28 15:49:21;;;;;;;12.13;10.90;;;15.80;32.60;;;;;;4899371;29;20504;-86
2022/02/28 15:51:48;;;;;;;10.60;9.60;;;15.40;32.70;;;;;;4899694;29;20976;-85
2022/02/28 15:54:16;;;;;;;10.80;9.70;;;15.10;33.40;;;;;;4895307;29;20480;-85
2022/02/28 15:56:43;;;;;;;11.57;10.37;;;14.70;33.50;;;;;;4898780;29;20455;-84
2022/02/28 15:59:09;;;;;;;11.70;9.77;;;14.40;34.10;;;;;;4893912;29;20986;-87
2022/02/28 16:01:36;;;;;;;10.57;9.47;;;14.30;34.50;;;;;;4894211;29;20470;-85
2022/02/28 16:04:03;;;;;;;14.07;11.17;;;14.00;34.60;;;;;;4905116;29;20463;-86
2022/02/28 16:06:29;;;;;;;12.27;9.30;;;13.70;35.00;;;;;;4920595;29;20442;-84
2022/02/28 16:09:00;;;;;;;11.83;10.20;;;13.70;35.20;;;;;;4896795;29;20491;-86
2022/02/28 16:11:29;;;;;;;11.80;10.23;;;13.60;35.50;;;;;;4895295;29;20457;-86
2022/02/28 16:13:56;;;;;;;11.90;9.47;;;13.80;35.70;;;;;;4899925;29;20488;-85
2022/02/28 16:16:25;;;;;;;9.90;8.90;;;13.70;35.20;;;;;;4905387;29;20838;-85
2022/02/28 16:18:54;;;;;;;10.27;9.27;;;13.60;35.30;;;;;;4909199;29;20447;-84
2022/02/28 16:21:21;;;;;;;11.67;10.03;;;13.50;35.90;;;;;;4908372;29;20459;-85
2022/02/28 16:23:48;;;;;;;12.00;10.30;;;13.30;36.00;;;;;;4914176;29;20463;-87
2022/02/28 16:26:15;;;;;;;11.63;10.27;;;13.00;36.70;;;;;;4898111;29;20513;-85
2022/02/28 16:28:43;;;;;;;11.77;10.57;;;13.00;37.00;;;;;;4900991;29;20503;-85
2022/02/28 16:31:11;;;;;;;13.47;10.97;;;12.80;37.20;;;;;;4900200;29;20455;-86
2022/02/28 16:33:38;;;;;;;10.77;9.70;;;12.50;37.40;;;;;;4902375;29;20475;-86
2022/02/28 16:36:05;;;;;;;11.47;10.37;;;12.10;37.70;;;;;;4905736;29;20454;-84
2022/02/28 16:38:31;;;;;;;11.40;9.93;;;11.70;38.30;;;;;;4900631;29;20978;-85
2022/02/28 16:40:58;;;;;;;11.43;10.27;;;11.40;38.70;;;;;;4900952;29;20538;-85
2022/02/28 16:43:25;;;;;;;11.43;10.30;;;11.10;39.10;;;;;;4917287;29;20456;-83
2022/02/28 16:45:56;;;;;;;11.93;9.60;;;11.00;39.90;;;;;;4903032;29;20451;-85
2022/02/28 16:48:23;;;;;;;12.80;11.60;;;10.90;40.10;;;;;;4895542;29;20482;-85
2022/02/28 16:50:50;;;;;;;10.70;9.57;;;10.70;40.70;;;;;;4896954;29;20833;-86
2022/02/28 16:53:18;;;;;;;13.17;11.77;;;10.60;40.90;;;;;;4897494;29;20458;-85
2022/02/28 16:55:45;;;;;;;11.10;9.67;;;10.40;41.50;;;;;;4899007;29;20466;-85
2022/02/28 16:58:12;;;;;;;10.80;9.80;;;10.20;41.70;;;;;;4898404;29;20460;-86
2022/02/28 17:00:39;;;;;;;12.37;11.03;;;10.10;42.30;;;;;;4895647;29;20951;-86
2022/02/28 17:03:07;;;;;;;11.63;10.43;;;10.00;42.60;;;;;;4894548;29;20849;-86
2022/02/28 17:05:34;;;;;;;10.77;9.67;;;9.90;43.90;;;;;;4899646;29;20482;-85
2022/02/28 17:08:01;;;;;;;19.33;10.47;;;9.80;44.40;;;;;;4899263;29;20447;-85
2022/02/28 17:10:28;;;;;;;13.23;11.00;;;9.70;45.40;;;;;;4900943;29;20459;-85
2022/02/28 17:12:55;;;;;;;10.73;9.37;;;9.70;45.10;;;;;;4896468;29;20455;-89
2022/02/28 17:15:24;;;;;;;12.20;10.90;;;9.60;46.30;;;;;;4911917;29;20472;-88
2022/02/28 17:17:53;;;;;;;13.77;9.90;;;9.70;46.50;;;;;;4897071;29;20527;-88
2022/02/28 17:20:21;;;;;;;11.37;10.17;;;9.60;46.50;;;;;;4901262;29;20448;-89
2022/02/28 17:22:53;;;;;;;11.23;10.00;;;9.60;47.00;;;;;;4900461;29;20455;-89
2022/02/28 17:25:20;;;;;;;12.97;11.37;;;9.60;47.10;;;;;;4903257;29;20468;-89
2022/02/28 17:27:48;;;;;;;13.73;11.50;;;9.30;47.20;;;;;;4902953;29;20452;-90
2022/02/28 17:30:15;;;;;;;11.67;10.17;;;9.30;47.70;;;;;;4900342;29;20452;-90
2022/02/28 17:32:42;;;;;;;12.30;10.63;;;9.10;48.00;;;;;;4908883;29;20456;-90
2022/02/28 17:35:09;;;;;;;12.73;11.43;;;9.00;48.50;;;;;;4905778;29;20471;-90
2022/02/28 17:37:38;;;;;;;12.40;10.17;;;9.00;48.90;;;;;;4901440;29;20459;-90
2022/02/28 17:40:05;;;;;;;13.00;10.80;;;9.00;48.90;;;;;;4907088;29;20450;-90
2022/02/28 17:42:32;;;;;;;12.33;10.87;;;8.90;49.00;;;;;;4900165;29;20449;-91
2022/02/28 17:44:58;;;;;;;10.47;9.40;;;8.90;49.30;;;;;;4906619;29;20479;-90
2022/02/28 17:47:25;;;;;;;12.40;11.13;;;8.90;49.30;;;;;;4904001;29;20519;-91
2022/02/28 17:49:52;;;;;;;13.63;12.03;;;8.90;49.60;;;;;;4907466;29;20483;-90
2022/02/28 17:52:19;;;;;;;14.33;11.77;;;8.80;49.70;;;;;;4900800;29;20455;-91
2022/02/28 17:54:47;;;;;;;14.53;11.90;;;8.70;49.90;;;;;;4902845;29;20471;-91
2022/02/28 17:57:14;;;;;;;14.73;10.30;;;8.70;50.10;;;;;;4915102;29;20450;-90
2022/02/28 17:59:43;;;;;;;12.23;10.13;;;8.60;50.40;;;;;;4915131;29;20460;-91
2022/02/28 18:02:12;;;;;;;12.57;11.33;;;8.50;50.50;;;;;;4915089;29;20480;-90
2022/02/28 18:04:41;;;;;;;11.43;10.10;;;8.40;50.80;;;;;;4913388;29;20479;-89
2022/02/28 18:07:15;;;;;;;12.97;10.20;;;8.40;50.70;;;;;;4923250;29;20440;-89
2022/02/28 18:09:51;;;;;;;11.00;9.30;;;8.30;50.80;;;;;;4922818;29;20475;-91
2022/02/28 18:12:23;;;;;;;12.37;10.30;;;8.20;50.70;;;;;;4922181;29;20499;-91
2022/02/28 18:14:51;;;;;;;10.90;9.90;;;8.20;50.40;;;;;;4935430;23;20503;-89
2022/02/28 18:17:17;;;;;;;11.87;10.70;;;8.20;50.20;;;;;;4937130;29;20505;-89
2022/02/28 18:19:44;;;;;;;13.20;11.80;;;8.20;50.10;;;;;;4946623;29;20460;-89
2022/02/28 18:22:11;;;;;;;13.60;9.70;;;8.10;50.40;;;;;;4943983;29;20445;-89
2022/02/28 18:24:39;;;;;;;11.97;10.43;;;8.10;50.50;;;;;;4917800;29;20883;-90
2022/02/28 18:27:07;;;;;;;15.50;11.50;;;8.10;50.30;;;;;;4900952;29;20449;-90
2022/02/28 18:29:35;;;;;;;11.83;10.03;;;8.00;50.40;;;;;;4907161;29;20518;-90
2022/02/28 18:32:22;;;;;;;11.53;10.00;;;8.00;50.50;;;;;;4908223;29;20942;-88
2022/02/28 18:34:49;;;;;;;12.70;10.07;;;8.00;50.70;;;;;;4916970;29;20493;-90
2022/02/28 18:37:15;;;;;;;10.50;9.40;;;8.00;51.00;;;;;;4917617;29;21136;-89
2022/02/28 18:39:42;;;;;;;11.03;9.83;;;8.00;51.30;;;;;;4916390;29;21180;-90
2022/02/28 18:42:10;;;;;;;14.30;11.00;;;7.90;50.90;;;;;;4914086;29;20454;-90
2022/02/28 18:44:37;;;;;;;17.73;10.30;;;7.80;50.90;;;;;;4913045;29;20478;-88
2022/02/28 18:47:04;;;;;;;12.17;9.60;;;7.80;51.00;;;;;;4924014;29;20454;-88
2022/02/28 18:49:31;;;;;;;11.80;10.03;;;7.80;51.20;;;;;;4917405;29;20481;-89
2022/02/28 18:51:58;;;;;;;13.30;11.40;;;7.80;51.30;;;;;;4918240;29;20505;-88
2022/02/28 18:54:25;;;;;;;11.63;10.33;;;7.70;51.30;;;;;;4920238;29;20457;-88
2022/02/28 18:56:53;;;;;;;12.03;10.73;;;7.70;51.70;;;;;;4922013;29;20537;-88
2022/02/28 18:59:21;;;;;;;12.80;11.20;;;7.60;51.80;;;;;;4919072;29;20457;-88
2022/02/28 19:01:50;;;;;;;13.10;11.80;;;7.60;52.20;;;;;;4919007;29;20739;-89
2022/02/28 19:04:18;;;;;;;13.90;10.90;;;7.50;52.40;;;;;;4909213;29;20451;-89
2022/02/28 19:06:45;;;;;;;13.00;11.30;;;7.40;53.00;;;;;;4915851;29;20483;-90
2022/02/28 19:09:16;;;;;;;12.90;11.40;;;7.40;53.40;;;;;;4910842;29;20491;-90
2022/02/28 19:11:43;;;;;;;14.47;11.23;;;7.20;53.60;;;;;;4918258;29;20436;-88
2022/02/28 19:14:10;;;;;;;15.30;11.70;;;7.30;53.70;;;;;;4915734;29;20461;-90
2022/02/28 19:16:38;;;;;;;14.50;10.60;;;7.20;53.70;;;;;;4919254;29;20469;-90
2022/02/28 19:19:08;;;;;;;15.17;11.40;;;7.20;53.90;;;;;;4936535;29;20435;-88
2022/02/28 19:21:35;;;;;;;12.30;9.63;;;7.20;53.90;;;;;;4929005;29;20503;-87
2022/02/28 19:24:01;;;;;;;13.40;12.00;;;7.20;53.50;;;;;;4921252;29;20460;-89